Broadview Gardens, Ontario

3:09 AM EST on January 22, 2017 (GMT -0500)
IONSAULT2 | | Change Station

Elev 684 ft 46.55 °N, 84.41 °W | Updated 79 days ago

Fog
Fog
40.5 °F
Feels Like 40 °F
N
0.0
Wind Variable Wind from North
Gusts 0.0 mph

Today
High -- | Low -- °F
--% Chance of Precip.
Yesterday
High -- | Low -- °F
Precip. -- in
Pressure 29.64 in
Visibility 0.8 miles
Clouds Mostly Cloudy 200 ft
Overcast 500 ft
Windchill 40 °F
Dew Point 34 °F
Humidity 76%
Rainfall 0.04 in
Snow Depth Not available.
8:11 AM 5:27 PM
Waning Crescent, 28% visible
METAR CYAM 220800Z 08005KT 3/4SM R12/P6000FT/N -DZ BR BKN002 OVC005 02/02 A2961 RMK FG3ST4ST1 SLP037
Pressure 29.64 in
Visibility 0.8 miles
Clouds Mostly Cloudy 200 ft
Overcast 500 ft
Windchill 40 °F
Dew Point 34 °F
Humidity 76%
Rainfall 0.04 in
Snow Depth Not available.
8:11 AM 5:27 PM
Waning Crescent, 28% visible
METAR CYAM 220800Z 08005KT 3/4SM R12/P6000FT/N -DZ BR BKN002 OVC005 02/02 A2961 RMK FG3ST4ST1 SLP037

Get Your Daily Forecast Email!

Thanks for signing up!

Be on the lookout for a verification email in your inbox.

You'll start receiving the daily forecast at 8 AM.

×

10-Day Weather Forecast

Almanac

Astronomy

Jan. 22, 2017 Rise Set
Actual Time
Civil Twilight
Nautical Twilight
Astronomical Twilight
Moon
Length of Visible Light
Length of Day
Tomorrow will be .
, % of the Moon is Illuminated

Today's Extremes

Country Highs Country Lows

Community

WunderPhotos

Upload Photos

1,962,540 photos uploaded!

WunderBlog® & News

Nearby

Air Quality

  Air Quality AQ Index Pollutant
Not available.

Snow Depth

Station Depth Elevation

Earthquake Activity

City Distance Mag. Time & Date
Minimum magnitude displayed is 2.5.

Coastal Water Temperatures

Place Temperature

Stations

Nearby Weather Stations

Station Location Temp. Windchill Dew Point Humidity Wind Precip. Elev Updated Type
                   

Watches & Warnings

There are currently no watches in effect.